createdAt,value
2018-08-27T00:00:07.615Z,1.87
2018-08-27T00:02:36.041Z,2.10
2018-08-27T00:05:04.583Z,2.53
2018-08-27T00:07:33.071Z,1.80
2018-08-27T00:10:01.542Z,1.70
2018-08-27T00:12:30.024Z,2.20
2018-08-27T00:14:58.504Z,2.00
2018-08-27T00:17:26.951Z,1.67
2018-08-27T00:19:55.370Z,1.90
2018-08-27T00:22:23.846Z,2.63
2018-08-27T00:24:52.309Z,1.73
2018-08-27T00:27:20.745Z,1.43
2018-08-27T00:29:49.193Z,2.30
2018-08-27T00:32:17.648Z,2.73
2018-08-27T00:34:46.097Z,1.63
2018-08-27T00:37:14.564Z,2.60
2018-08-27T00:39:43.014Z,2.07
2018-08-27T00:42:11.481Z,1.60
2018-08-27T00:44:39.926Z,2.20
2018-08-27T00:47:08.375Z,1.70
2018-08-27T00:49:36.814Z,2.07
2018-08-27T00:52:05.292Z,2.13
2018-08-27T00:54:33.733Z,2.30
2018-08-27T00:57:02.212Z,1.33
2018-08-27T00:59:30.711Z,1.97
2018-08-27T01:01:59.149Z,3.07
2018-08-27T01:04:27.599Z,2.20
2018-08-27T01:06:56.044Z,2.10
2018-08-27T01:09:24.532Z,2.40
2018-08-27T01:11:53.189Z,1.97
2018-08-27T01:14:21.822Z,2.43
2018-08-27T01:16:50.888Z,1.80
2018-08-27T01:19:19.353Z,2.10
2018-08-27T01:21:47.815Z,1.97
2018-08-27T01:24:16.605Z,2.30
2018-08-27T01:26:45.616Z,2.07
2018-08-27T01:29:14.478Z,2.00
2018-08-27T01:31:43.046Z,2.10
2018-08-27T01:34:11.481Z,1.67
2018-08-27T01:36:39.960Z,2.50
2018-08-27T01:39:08.917Z,2.40
2018-08-27T01:41:37.373Z,2.00
2018-08-27T01:44:06.353Z,2.10
2018-08-27T01:46:34.838Z,2.33
2018-08-27T01:49:03.302Z,2.00
2018-08-27T01:51:31.821Z,2.00
2018-08-27T01:54:00.332Z,2.07
2018-08-27T01:56:28.769Z,2.03
2018-08-27T01:58:57.213Z,2.20
2018-08-27T02:01:25.662Z,2.07
2018-08-27T02:03:54.077Z,2.10
2018-08-27T02:06:22.577Z,2.27
2018-08-27T02:08:51.039Z,2.07
2018-08-27T02:11:19.546Z,2.60
2018-08-27T02:13:47.990Z,2.10
2018-08-27T02:16:16.450Z,2.20
2018-08-27T02:18:44.882Z,1.73
2018-08-27T02:21:13.334Z,2.00
2018-08-27T02:23:41.794Z,1.90
2018-08-27T02:26:10.271Z,2.10
2018-08-27T02:28:38.710Z,2.50
2018-08-27T02:31:07.162Z,1.90
2018-08-27T02:33:35.609Z,1.50
2018-08-27T02:36:04.060Z,1.90
2018-08-27T02:38:32.523Z,1.90
2018-08-27T02:41:00.983Z,1.90
2018-08-27T02:43:29.446Z,2.33
2018-08-27T02:45:57.890Z,2.27
2018-08-27T02:48:26.325Z,1.70
2018-08-27T02:50:54.769Z,2.20
2018-08-27T02:53:23.227Z,1.60
2018-08-27T02:55:51.702Z,2.20
2018-08-27T02:58:20.160Z,2.70
2018-08-27T03:00:48.623Z,2.03
2018-08-27T03:03:17.107Z,2.13
2018-08-27T03:05:45.575Z,2.30
2018-08-27T03:08:14.026Z,2.33
2018-08-27T03:10:42.569Z,2.53
2018-08-27T03:13:11.012Z,2.50
2018-08-27T03:15:39.610Z,2.40
2018-08-27T03:18:08.074Z,2.20
2018-08-27T03:20:36.889Z,2.70
2018-08-27T03:23:05.341Z,2.57
2018-08-27T03:25:33.805Z,2.70
2018-08-27T03:28:02.227Z,2.90
2018-08-27T03:30:30.711Z,2.43
2018-08-27T03:32:59.210Z,3.27
2018-08-27T03:35:27.630Z,2.70
2018-08-27T03:37:56.072Z,2.77
2018-08-27T03:40:24.562Z,2.50
2018-08-27T03:42:52.985Z,3.20
2018-08-27T03:45:21.479Z,2.67
2018-08-27T03:47:49.944Z,2.50
2018-08-27T03:50:18.479Z,2.77
2018-08-27T03:52:46.914Z,2.57
2018-08-27T03:55:15.351Z,2.70
2018-08-27T03:57:43.801Z,2.50
2018-08-27T04:00:12.258Z,2.53
2018-08-27T04:02:40.717Z,3.33
2018-08-27T04:05:09.198Z,2.70
2018-08-27T04:07:37.775Z,2.70
2018-08-27T04:10:06.238Z,2.67
2018-08-27T04:12:34.685Z,2.80
2018-08-27T04:15:03.447Z,2.80
2018-08-27T04:17:32.826Z,2.90
2018-08-27T04:20:02.745Z,3.30
2018-08-27T04:22:31.274Z,3.20
2018-08-27T04:24:59.994Z,2.20
2018-08-27T04:27:28.479Z,2.60
2018-08-27T04:29:56.899Z,2.50
2018-08-27T04:32:25.350Z,2.60
2018-08-27T04:34:53.815Z,2.33
2018-08-27T04:37:22.725Z,2.90
2018-08-27T04:39:51.247Z,2.30
2018-08-27T04:42:19.705Z,2.87
2018-08-27T04:44:48.147Z,2.97
2018-08-27T04:47:16.620Z,2.90
2018-08-27T04:49:45.043Z,2.20
2018-08-27T04:52:13.486Z,3.83
2018-08-27T04:54:41.940Z,2.83
2018-08-27T04:57:10.400Z,2.70
2018-08-27T04:59:42.705Z,3.10
2018-08-27T05:02:11.179Z,2.93
2018-08-27T05:04:39.611Z,2.70
2018-08-27T05:07:08.079Z,2.97
2018-08-27T05:09:36.501Z,3.00
2018-08-27T05:12:04.978Z,4.97
2018-08-27T05:14:33.483Z,3.47
2018-08-27T05:17:01.929Z,3.00
2018-08-27T05:19:30.382Z,3.37
2018-08-27T05:21:58.829Z,2.10
2018-08-27T05:24:27.275Z,2.77
2018-08-27T05:26:55.832Z,2.10
2018-08-27T05:29:24.273Z,2.10
2018-08-27T05:31:52.731Z,2.33
2018-08-27T05:34:21.160Z,2.10
2018-08-27T05:36:49.630Z,2.07
2018-08-27T05:39:18.060Z,1.67
2018-08-27T05:41:46.523Z,1.90
2018-08-27T05:44:14.964Z,1.67
2018-08-27T05:46:43.398Z,2.30
2018-08-27T05:49:11.821Z,1.93
2018-08-27T05:51:40.266Z,2.07
2018-08-27T05:54:08.689Z,2.30
2018-08-27T05:56:37.130Z,2.10
2018-08-27T05:59:05.555Z,1.90
2018-08-27T06:01:34.096Z,2.10
2018-08-27T06:04:02.478Z,1.30
2018-08-27T06:06:31.160Z,2.00
2018-08-27T06:08:59.628Z,2.10
2018-08-27T06:11:28.559Z,1.63
2018-08-27T06:13:56.969Z,1.60
2018-08-27T06:16:25.435Z,2.10
2018-08-27T06:18:53.936Z,1.60
2018-08-27T06:21:22.402Z,1.20
2018-08-27T06:23:50.854Z,1.40
2018-08-27T06:26:19.305Z,1.50
2018-08-27T06:28:47.741Z,1.40
2018-08-27T06:31:16.222Z,1.50
2018-08-27T06:33:44.654Z,1.27
2018-08-27T06:36:13.121Z,1.70
2018-08-27T06:38:41.782Z,1.50
2018-08-27T06:41:10.340Z,1.20
2018-08-27T06:43:38.771Z,1.70
2018-08-27T06:46:07.649Z,1.47
2018-08-27T06:48:36.089Z,1.53
2018-08-27T06:51:04.599Z,1.27
2018-08-27T06:53:33.054Z,1.43
2018-08-27T06:56:01.999Z,1.20
2018-08-27T06:58:30.516Z,1.40
2018-08-27T07:00:58.995Z,1.30
2018-08-27T07:03:27.459Z,1.10
2018-08-27T07:05:55.923Z,1.40
2018-08-27T07:08:24.360Z,1.70
2018-08-27T07:10:52.814Z,1.70
2018-08-27T07:13:21.297Z,1.87
2018-08-27T07:15:49.743Z,1.37
2018-08-27T07:18:18.186Z,1.20
2018-08-27T07:20:46.635Z,1.93
2018-08-27T07:23:15.080Z,1.20
2018-08-27T07:25:43.551Z,1.03
2018-08-27T07:28:12.035Z,1.67
2018-08-27T07:30:40.480Z,1.77
2018-08-27T07:33:08.926Z,1.30
2018-08-27T07:35:37.471Z,1.40
2018-08-27T07:38:06.026Z,1.50
2018-08-27T07:40:34.483Z,1.43
2018-08-27T07:43:02.921Z,1.23
2018-08-27T07:45:31.355Z,1.77
2018-08-27T07:47:59.813Z,1.33
2018-08-27T07:50:28.306Z,2.27
2018-08-27T07:52:56.760Z,1.33
2018-08-27T07:55:25.485Z,1.23
2018-08-27T07:57:53.956Z,1.60
2018-08-27T08:00:23.770Z,1.33
2018-08-27T08:02:53.806Z,1.40
2018-08-27T08:05:22.559Z,1.17
2018-08-27T08:07:51.242Z,1.10
2018-08-27T08:10:20.309Z,1.10
2018-08-27T08:12:50.586Z,1.10
2018-08-27T08:15:19.474Z,1.10
2018-08-27T08:17:48.146Z,1.30
2018-08-27T08:20:16.611Z,1.60
2018-08-27T08:22:45.203Z,1.33
2018-08-27T08:25:13.883Z,1.40
2018-08-27T08:27:42.325Z,1.07
2018-08-27T08:30:10.803Z,1.63
2018-08-27T08:32:39.256Z,1.27
2018-08-27T08:35:07.783Z,1.23
2018-08-27T08:37:36.241Z,1.43
2018-08-27T08:40:04.847Z,1.40
2018-08-27T08:42:33.498Z,1.27
2018-08-27T08:45:01.968Z,1.00
2018-08-27T08:47:30.436Z,1.60
2018-08-27T08:49:58.916Z,0.90
2018-08-27T08:52:27.358Z,1.57
2018-08-27T08:54:55.805Z,1.40
2018-08-27T08:57:24.311Z,1.37
2018-08-27T08:59:52.782Z,1.03
2018-08-27T09:02:21.217Z,1.10
2018-08-27T09:04:49.660Z,1.10
2018-08-27T09:07:18.132Z,1.30
2018-08-27T09:09:46.570Z,2.07
2018-08-27T09:12:15.022Z,1.43
2018-08-27T09:14:43.507Z,0.90
2018-08-27T09:17:12.040Z,2.00
2018-08-27T09:19:40.425Z,1.63
2018-08-27T09:22:08.865Z,1.17
2018-08-27T09:24:37.320Z,1.50
2018-08-27T09:27:05.816Z,1.93
2018-08-27T09:29:34.246Z,1.13
2018-08-27T09:32:03.179Z,0.97
2018-08-27T09:34:31.637Z,1.30
2018-08-27T09:37:00.177Z,1.40
2018-08-27T09:39:28.527Z,1.40
2018-08-27T09:41:56.969Z,1.50
2018-08-27T09:44:25.439Z,1.20
2018-08-27T09:46:54.026Z,1.30
2018-08-27T09:49:22.421Z,1.10
2018-08-27T09:51:50.860Z,1.70
2018-08-27T09:54:19.333Z,1.17
2018-08-27T09:56:47.793Z,2.03
2018-08-27T09:59:16.235Z,1.27
2018-08-27T10:01:50.085Z,1.33
2018-08-27T10:04:18.499Z,1.30
2018-08-27T10:06:46.968Z,1.50
2018-08-27T10:09:15.447Z,1.57
2018-08-27T10:11:43.880Z,1.80
2018-08-27T10:14:12.337Z,1.87
2018-08-27T10:16:40.791Z,2.10
2018-08-27T10:19:09.255Z,2.53
2018-08-27T10:21:37.705Z,1.93
2018-08-27T10:24:06.293Z,2.80
2018-08-27T10:26:34.924Z,2.53
2018-08-27T10:29:04.139Z,2.73
2018-08-27T10:31:32.587Z,3.70
2018-08-27T10:34:01.245Z,4.73
2018-08-27T10:36:29.703Z,4.23
2018-08-27T10:38:58.157Z,5.33
2018-08-27T10:41:26.639Z,7.63
2018-08-27T10:43:55.106Z,5.70
2018-08-27T10:46:23.591Z,6.73
2018-08-27T10:48:52.054Z,12.13
2018-08-27T10:51:20.544Z,10.90
2018-08-27T10:53:49.007Z,13.27
2018-08-27T10:56:17.465Z,24.47
2018-08-27T10:58:45.932Z,25.47
2018-08-27T11:01:14.423Z,21.00
2018-08-27T11:03:49.401Z,15.73
2018-08-27T11:06:17.933Z,13.47
2018-08-27T11:08:46.377Z,10.63
2018-08-27T11:11:14.859Z,9.60
2018-08-27T11:13:43.415Z,7.90
2018-08-27T11:16:11.897Z,9.13
2018-08-27T11:18:40.313Z,8.90
2018-08-27T11:21:08.798Z,7.40
2018-08-27T11:23:37.269Z,9.60
2018-08-27T11:26:05.758Z,8.70
2018-08-27T11:28:34.200Z,10.27
2018-08-27T11:31:02.663Z,10.20
2018-08-27T11:33:31.155Z,11.03
2018-08-27T11:35:59.599Z,11.57
2018-08-27T11:38:28.096Z,10.63
2018-08-27T11:40:56.570Z,11.53
2018-08-27T11:43:25.123Z,11.23
2018-08-27T11:45:53.524Z,11.37
2018-08-27T11:48:21.985Z,9.90
2018-08-27T11:50:50.596Z,9.00
2018-08-27T11:53:18.930Z,9.60
2018-08-27T11:55:47.367Z,11.20
2018-08-27T11:58:15.884Z,8.07
2018-08-27T12:00:49.686Z,6.40
2018-08-27T12:03:18.185Z,8.77
2018-08-27T12:05:46.644Z,10.53
2018-08-27T12:08:15.131Z,9.60
2018-08-27T12:10:43.587Z,8.60
2018-08-27T12:13:12.029Z,7.67
2018-08-27T12:15:40.495Z,9.50
2018-08-27T12:18:08.966Z,7.00
2018-08-27T12:20:37.426Z,8.50
2018-08-27T12:23:05.971Z,6.80
2018-08-27T12:25:34.437Z,7.80
2018-08-27T12:28:02.912Z,7.63
2018-08-27T12:30:31.390Z,7.40
2018-08-27T12:32:59.820Z,6.53
2018-08-27T12:35:28.285Z,7.40
2018-08-27T12:37:56.752Z,6.07
2018-08-27T12:40:25.248Z,6.67
2018-08-27T12:42:53.691Z,6.83
2018-08-27T12:45:22.183Z,7.13
2018-08-27T12:47:50.668Z,7.37
2018-08-27T12:50:19.198Z,6.50
2018-08-27T12:52:47.664Z,6.17
2018-08-27T12:55:16.171Z,7.27
2018-08-27T12:57:44.630Z,6.83
2018-08-27T13:00:15.860Z,7.53
2018-08-27T13:02:45.521Z,6.47
2018-08-27T13:05:13.979Z,6.67
2018-08-27T13:07:43.287Z,6.73
2018-08-27T13:10:11.775Z,6.90
2018-08-27T13:12:40.404Z,7.93
2018-08-27T13:15:09.183Z,7.20
2018-08-27T13:17:37.696Z,5.87
2018-08-27T13:20:06.230Z,7.70
2018-08-27T13:22:34.736Z,5.53
2018-08-27T13:25:04.021Z,7.17
2018-08-27T13:27:33.355Z,6.87
2018-08-27T13:30:01.919Z,5.33
2018-08-27T13:32:30.415Z,6.40
2018-08-27T13:34:58.869Z,6.57
2018-08-27T13:37:27.316Z,6.90
2018-08-27T13:39:55.846Z,6.00
2018-08-27T13:42:24.305Z,7.53
2018-08-27T13:44:52.758Z,7.13
2018-08-27T13:47:21.240Z,6.70
2018-08-27T13:49:49.699Z,6.73
2018-08-27T13:52:18.150Z,5.50
2018-08-27T13:54:46.610Z,5.00
2018-08-27T13:57:15.066Z,6.17
2018-08-27T13:59:43.576Z,8.20
2018-08-27T14:02:11.970Z,6.47
2018-08-27T14:04:40.444Z,5.93
2018-08-27T14:07:08.881Z,5.87
2018-08-27T14:09:37.346Z,5.60
2018-08-27T14:12:05.793Z,5.80
2018-08-27T14:14:34.233Z,5.67
2018-08-27T14:17:02.729Z,5.23
2018-08-27T14:19:31.260Z,5.60
2018-08-27T14:21:59.762Z,5.70
2018-08-27T14:24:28.257Z,7.47
2018-08-27T14:26:56.739Z,6.27
2018-08-27T14:29:25.470Z,5.50
2018-08-27T14:31:53.985Z,6.27
2018-08-27T14:34:22.482Z,5.70
2018-08-27T14:36:50.946Z,5.17
2018-08-27T14:39:19.394Z,5.30
2018-08-27T14:41:47.948Z,6.10
2018-08-27T14:44:16.350Z,5.20
2018-08-27T14:46:44.823Z,6.33
2018-08-27T14:49:13.278Z,6.17
2018-08-27T14:51:41.725Z,5.00
2018-08-27T14:54:10.194Z,6.37
2018-08-27T14:56:38.670Z,6.03
2018-08-27T14:59:07.106Z,6.97
2018-08-27T15:01:35.545Z,5.13
2018-08-27T15:04:04.077Z,6.63
2018-08-27T15:06:32.520Z,4.87
2018-08-27T15:09:00.998Z,6.20
2018-08-27T15:11:29.471Z,7.37
2018-08-27T15:13:57.909Z,5.53
2018-08-27T15:16:26.992Z,6.03
2018-08-27T15:18:55.459Z,5.00
2018-08-27T15:21:23.899Z,5.93
2018-08-27T15:23:52.424Z,5.57
2018-08-27T15:26:20.860Z,5.43
2018-08-27T15:28:49.340Z,5.43
2018-08-27T15:31:17.804Z,5.93
2018-08-27T15:33:46.257Z,6.10
2018-08-27T15:36:14.718Z,6.20
2018-08-27T15:38:43.309Z,5.43
2018-08-27T15:41:11.682Z,5.40
2018-08-27T15:43:40.130Z,5.50
2018-08-27T15:46:13.962Z,6.63
2018-08-27T15:48:42.406Z,6.43
2018-08-27T15:51:10.909Z,6.23
2018-08-27T15:53:39.353Z,5.40
2018-08-27T15:56:07.847Z,4.90
2018-08-27T15:58:36.285Z,5.70
2018-08-27T16:01:04.975Z,6.10
2018-08-27T16:03:33.407Z,6.17
2018-08-27T16:06:01.855Z,6.17
2018-08-27T16:08:30.311Z,4.90
2018-08-27T16:10:58.774Z,4.40
2018-08-27T16:13:27.217Z,5.20
2018-08-27T16:15:55.667Z,4.97
2018-08-27T16:18:24.104Z,6.47
2018-08-27T16:20:52.539Z,5.00
2018-08-27T16:23:21.049Z,6.30
2018-08-27T16:25:49.516Z,6.20
2018-08-27T16:28:18.023Z,5.80
2018-08-27T16:30:46.451Z,6.80
2018-08-27T16:33:14.914Z,7.30
2018-08-27T16:35:43.343Z,5.27
2018-08-27T16:38:11.815Z,5.40
2018-08-27T16:40:40.272Z,5.83
2018-08-27T16:43:08.735Z,6.10
2018-08-27T16:45:37.197Z,7.97
2018-08-27T16:48:05.703Z,6.17
2018-08-27T16:50:34.200Z,5.80
2018-08-27T16:53:02.669Z,5.97
2018-08-27T16:55:31.156Z,6.60
2018-08-27T16:57:59.691Z,6.83
2018-08-27T17:00:28.158Z,5.93
2018-08-27T17:02:56.662Z,6.23
2018-08-27T17:05:25.178Z,5.80
2018-08-27T17:07:53.681Z,6.73
2018-08-27T17:10:22.226Z,5.77
2018-08-27T17:12:50.663Z,5.87
2018-08-27T17:15:19.127Z,5.50
2018-08-27T17:17:47.622Z,5.37
2018-08-27T17:20:16.183Z,6.97
2018-08-27T17:22:44.744Z,7.00
2018-08-27T17:25:13.226Z,6.07
2018-08-27T17:27:41.776Z,5.73
2018-08-27T17:30:10.298Z,6.50
2018-08-27T17:32:38.777Z,5.93
2018-08-27T17:35:07.628Z,6.93
2018-08-27T17:37:36.126Z,5.70
2018-08-27T17:40:04.636Z,7.17
2018-08-27T17:42:33.149Z,5.67
2018-08-27T17:45:01.775Z,6.67
2018-08-27T17:47:30.207Z,5.93
2018-08-27T17:49:58.837Z,6.93
2018-08-27T17:52:27.327Z,5.90
2018-08-27T17:54:55.793Z,6.37
2018-08-27T17:57:24.325Z,6.23
2018-08-27T17:59:52.833Z,6.90
2018-08-27T18:02:21.326Z,4.57
2018-08-27T18:04:49.945Z,5.57
2018-08-27T18:07:18.392Z,5.93
2018-08-27T18:09:46.842Z,5.47
2018-08-27T18:12:15.291Z,5.93
2018-08-27T18:14:43.806Z,6.37
2018-08-27T18:17:12.335Z,5.60
2018-08-27T18:19:40.892Z,6.13
2018-08-27T18:22:09.262Z,5.77
2018-08-27T18:24:37.767Z,5.67
2018-08-27T18:27:06.258Z,6.20
2018-08-27T18:29:34.785Z,6.13
2018-08-27T18:32:03.338Z,6.30
2018-08-27T18:34:31.828Z,6.90
2018-08-27T18:37:00.265Z,6.30
2018-08-27T18:39:28.788Z,5.77
2018-08-27T18:41:57.262Z,6.47
2018-08-27T18:44:25.803Z,7.30
2018-08-27T18:46:54.295Z,6.63
2018-08-27T18:49:22.777Z,8.70
2018-08-27T18:51:51.273Z,5.80
2018-08-27T18:54:19.706Z,8.73
2018-08-27T18:56:48.181Z,6.50
2018-08-27T18:59:16.651Z,8.00
2018-08-27T19:01:45.239Z,8.40
2018-08-27T19:04:13.730Z,8.67
2018-08-27T19:06:42.266Z,7.90
2018-08-27T19:09:10.832Z,8.60
2018-08-27T19:11:39.331Z,7.47
2018-08-27T19:14:08.110Z,9.20
2018-08-27T19:16:37.138Z,6.80
2018-08-27T19:19:05.627Z,7.77
2018-08-27T19:21:34.095Z,7.00
2018-08-27T19:24:02.631Z,7.93
2018-08-27T19:26:31.039Z,7.93
2018-08-27T19:28:59.556Z,7.73
2018-08-27T19:31:27.997Z,8.43
2018-08-27T19:33:56.465Z,8.73
2018-08-27T19:36:25.080Z,8.10
2018-08-27T19:38:53.383Z,8.00
2018-08-27T19:41:21.865Z,8.40
2018-08-27T19:43:50.330Z,8.53
2018-08-27T19:46:18.903Z,6.73
2018-08-27T19:48:47.334Z,8.27
2018-08-27T19:51:15.793Z,7.60
2018-08-27T19:53:44.278Z,9.33
2018-08-27T19:56:12.746Z,7.67
2018-08-27T19:58:41.269Z,8.13
2018-08-27T20:01:09.792Z,8.93
2018-08-27T20:03:38.305Z,6.90
2018-08-27T20:06:06.805Z,9.37
2018-08-27T20:08:35.343Z,7.73
2018-08-27T20:11:03.821Z,7.70
2018-08-27T20:13:32.326Z,7.80
2018-08-27T20:16:00.773Z,7.13
2018-08-27T20:18:29.238Z,6.80
2018-08-27T20:20:57.734Z,6.70
2018-08-27T20:23:26.199Z,7.27
2018-08-27T20:25:54.752Z,6.73
2018-08-27T20:28:23.248Z,7.73
2018-08-27T20:30:51.752Z,7.73
2018-08-27T20:33:20.211Z,7.67
2018-08-27T20:35:48.682Z,6.47
2018-08-27T20:38:17.173Z,6.37
2018-08-27T20:40:45.677Z,6.43
2018-08-27T20:43:14.198Z,6.90
2018-08-27T20:45:42.721Z,6.80
2018-08-27T20:48:11.194Z,7.10
2018-08-27T20:50:39.668Z,6.23
2018-08-27T20:53:08.203Z,7.40
2018-08-27T20:55:36.663Z,6.90
2018-08-27T20:58:05.168Z,6.80
2018-08-27T21:00:33.627Z,6.57
2018-08-27T21:03:02.103Z,7.37
2018-08-27T21:05:30.575Z,6.60
2018-08-27T21:07:59.067Z,7.07
2018-08-27T21:10:27.571Z,7.07
2018-08-27T21:12:56.023Z,5.73
2018-08-27T21:15:24.487Z,5.77
2018-08-27T21:17:53.819Z,6.40
2018-08-27T21:20:23.269Z,5.93
2018-08-27T21:22:51.771Z,6.60
2018-08-27T21:25:20.300Z,5.67
2018-08-27T21:27:50.626Z,5.83
2018-08-27T21:30:20.450Z,5.73
2018-08-27T21:32:48.947Z,6.00
2018-08-27T21:35:17.436Z,5.60
2018-08-27T21:37:45.918Z,6.27
2018-08-27T21:40:14.417Z,6.83
2018-08-27T21:42:42.904Z,5.50
2018-08-27T21:45:11.381Z,6.20
2018-08-27T21:47:39.887Z,5.23
2018-08-27T21:50:08.470Z,6.40
2018-08-27T21:52:37.103Z,6.27
2018-08-27T21:55:05.625Z,5.43
2018-08-27T21:57:34.082Z,5.37
2018-08-27T22:00:02.562Z,6.17
2018-08-27T22:02:36.354Z,6.60
2018-08-27T22:05:04.958Z,6.43
2018-08-27T22:07:33.487Z,6.80
2018-08-27T22:10:01.985Z,6.87
2018-08-27T22:12:30.454Z,6.30
2018-08-27T22:14:58.966Z,6.90
2018-08-27T22:17:27.467Z,7.77
2018-08-27T22:19:55.930Z,6.33
2018-08-27T22:22:24.435Z,6.27
2018-08-27T22:24:52.914Z,7.70
2018-08-27T22:27:21.403Z,5.90
2018-08-27T22:29:49.877Z,6.43
2018-08-27T22:32:18.372Z,7.67
2018-08-27T22:34:53.173Z,7.07
2018-08-27T22:37:21.629Z,5.77
2018-08-27T22:39:50.071Z,6.57
2018-08-27T22:42:18.657Z,7.30
2018-08-27T22:44:47.110Z,7.03
2018-08-27T22:47:15.564Z,7.83
2018-08-27T22:49:44.045Z,7.40
2018-08-27T22:52:13.203Z,7.73
2018-08-27T22:54:41.666Z,8.73
2018-08-27T22:57:10.171Z,7.80
2018-08-27T22:59:38.744Z,7.70
2018-08-27T23:02:07.231Z,8.10
2018-08-27T23:04:41.078Z,7.87
2018-08-27T23:07:09.573Z,7.80
2018-08-27T23:09:38.043Z,7.67
2018-08-27T23:12:06.546Z,7.03
2018-08-27T23:14:34.999Z,7.10
2018-08-27T23:17:03.481Z,7.60
2018-08-27T23:19:32.006Z,6.63
2018-08-27T23:22:00.449Z,8.53
2018-08-27T23:24:28.941Z,7.73
2018-08-27T23:26:57.405Z,8.10
2018-08-27T23:29:25.857Z,8.53
2018-08-27T23:31:54.338Z,6.90
2018-08-27T23:34:22.807Z,9.07
2018-08-27T23:36:51.290Z,7.80
2018-08-27T23:39:19.774Z,8.13
2018-08-27T23:41:48.265Z,8.40
2018-08-27T23:44:16.748Z,9.40
2018-08-27T23:46:45.227Z,8.33
2018-08-27T23:49:13.680Z,8.50
2018-08-27T23:51:42.135Z,8.20
2018-08-27T23:54:10.601Z,8.33
2018-08-27T23:56:39.065Z,8.93
2018-08-27T23:59:07.617Z,9.23
